createdAt,value
2022-08-30T00:01:42.470Z,7.40
2022-08-30T00:05:44.627Z,8.07
2022-08-30T00:09:46.108Z,11.88
2022-08-30T00:13:49.831Z,10.63
2022-08-30T00:17:51.320Z,6.68
2022-08-30T00:21:52.744Z,7.97
2022-08-30T00:25:54.262Z,14.00
2022-08-30T00:29:56.633Z,9.85
2022-08-30T00:33:58.051Z,12.70
2022-08-30T00:37:59.765Z,10.73
2022-08-30T00:42:03.837Z,10.38
2022-08-30T00:46:08.506Z,11.55
2022-08-30T00:50:11.405Z,10.02
2022-08-30T00:54:12.951Z,9.68
2022-08-30T00:58:21.729Z,10.70
2022-08-30T01:02:23.951Z,10.63
2022-08-30T01:06:26.294Z,8.48
2022-08-30T01:10:37.461Z,9.40
2022-08-30T01:14:39.295Z,6.65
2022-08-30T01:18:40.855Z,9.15
2022-08-30T01:22:51.377Z,9.48
2022-08-30T01:26:52.821Z,12.10
2022-08-30T01:30:54.441Z,10.30
2022-08-30T01:34:56.912Z,10.25
2022-08-30T01:38:59.003Z,11.10
2022-08-30T01:43:00.515Z,11.13
2022-08-30T01:47:02.108Z,7.85
2022-08-30T01:51:04.315Z,12.55
2022-08-30T01:55:07.114Z,11.48
2022-08-30T01:59:08.597Z,10.18
2022-08-30T02:03:10.116Z,13.80
2022-08-30T02:07:11.818Z,24.63
2022-08-30T02:11:14.910Z,18.17
2022-08-30T02:15:16.583Z,10.23
2022-08-30T02:19:18.097Z,15.60
2022-08-30T02:23:19.748Z,13.95
2022-08-30T02:27:21.238Z,15.57
2022-08-30T02:31:23.143Z,16.30
2022-08-30T02:35:24.872Z,10.27
2022-08-30T02:39:26.459Z,9.80
2022-08-30T02:43:28.136Z,10.35
2022-08-30T02:47:29.616Z,11.43
2022-08-30T02:51:31.269Z,10.25
2022-08-30T02:55:32.806Z,8.18
2022-08-30T02:59:36.961Z,7.82
2022-08-30T03:03:38.723Z,9.88
2022-08-30T03:07:41.334Z,10.43
2022-08-30T03:11:42.775Z,11.52
2022-08-30T03:15:44.253Z,10.73
2022-08-30T03:19:46.223Z,9.88
2022-08-30T03:23:47.686Z,9.90
2022-08-30T03:27:50.664Z,10.10
2022-08-30T03:31:53.743Z,11.40
2022-08-30T03:35:55.755Z,9.35
2022-08-30T03:39:57.455Z,13.02
2022-08-30T03:44:00.452Z,10.15
2022-08-30T03:48:03.610Z,10.38
2022-08-30T03:52:05.435Z,11.73
2022-08-30T03:56:07.306Z,12.18
2022-08-30T04:00:09.314Z,8.60
2022-08-30T04:04:10.753Z,11.85
2022-08-30T04:08:12.188Z,10.32
2022-08-30T04:12:13.758Z,11.27
2022-08-30T04:16:20.215Z,11.88
2022-08-30T04:20:21.720Z,10.32
2022-08-30T04:24:23.483Z,13.15
2022-08-30T04:28:24.974Z,10.90
2022-08-30T04:32:26.582Z,10.45
2022-08-30T04:36:28.076Z,10.35
2022-08-30T04:40:29.604Z,11.32
2022-08-30T04:44:32.094Z,9.32
2022-08-30T04:48:33.986Z,11.18
2022-08-30T04:52:35.525Z,11.63
2022-08-30T04:56:36.899Z,12.05
2022-08-30T05:00:38.746Z,12.57
2022-08-30T05:05:03.042Z,11.65
2022-08-30T05:09:05.004Z,11.85
2022-08-30T05:13:06.797Z,10.43
2022-08-30T05:17:08.382Z,9.07
2022-08-30T05:21:22.268Z,13.23
2022-08-30T05:25:26.034Z,12.43
2022-08-30T05:29:28.127Z,9.73
2022-08-30T05:33:29.799Z,13.45
2022-08-30T05:37:31.246Z,13.23
2022-08-30T05:41:33.232Z,15.13
2022-08-30T05:45:35.339Z,12.40
2022-08-30T05:49:36.784Z,13.65
2022-08-30T05:53:39.773Z,17.77
2022-08-30T05:57:41.571Z,15.15
2022-08-30T06:01:46.092Z,17.08
2022-08-30T06:09:49.059Z,13.57
2022-08-30T06:13:51.881Z,14.15
2022-08-30T06:17:53.387Z,14.25
2022-08-30T06:21:54.968Z,15.85
2022-08-30T06:25:57.146Z,17.48
2022-08-30T06:29:58.620Z,17.60
2022-08-30T06:34:00.168Z,20.13
2022-08-30T06:38:02.057Z,18.80
2022-08-30T06:42:03.692Z,17.55
2022-08-30T06:46:07.553Z,17.92
2022-08-30T06:50:11.878Z,18.95
2022-08-30T06:54:13.570Z,19.23
2022-08-30T06:58:15.326Z,22.98
2022-08-30T07:02:17.128Z,19.48
2022-08-30T07:06:19.347Z,14.57
2022-08-30T07:10:21.546Z,14.18
2022-08-30T07:14:23.189Z,14.32
2022-08-30T07:18:43.068Z,13.70
2022-08-30T07:22:44.463Z,13.63
2022-08-30T07:26:49.780Z,16.92
2022-08-30T07:30:51.461Z,14.45
2022-08-30T07:34:52.953Z,14.85
2022-08-30T07:38:55.013Z,10.57
2022-08-30T07:42:56.619Z,12.88
2022-08-30T07:46:58.129Z,19.48
2022-08-30T07:51:04.557Z,13.05
2022-08-30T07:55:07.073Z,12.93
2022-08-30T07:59:08.556Z,12.43
2022-08-30T08:03:10.368Z,10.43
2022-08-30T08:07:12.629Z,9.55
2022-08-30T08:11:23.571Z,9.32
2022-08-30T08:15:26.360Z,13.57
2022-08-30T08:19:27.861Z,11.75
2022-08-30T08:23:29.668Z,10.38
2022-08-30T08:27:31.577Z,11.80
2022-08-30T08:31:33.639Z,10.75
2022-08-30T08:35:35.469Z,9.00
2022-08-30T08:39:37.080Z,12.93
2022-08-30T08:43:39.006Z,13.40
2022-08-30T08:47:47.681Z,9.27
2022-08-30T08:52:10.566Z,11.43
2022-08-30T08:56:15.027Z,16.75
2022-08-30T09:00:16.581Z,9.38
2022-08-30T09:04:23.061Z,10.48
2022-08-30T09:08:24.751Z,10.90
2022-08-30T09:12:27.538Z,12.07
2022-08-30T09:16:58.302Z,12.73
2022-08-30T09:21:07.689Z,9.45
2022-08-30T09:25:12.150Z,11.07
2022-08-30T09:29:18.435Z,10.52
2022-08-30T09:33:21.113Z,9.63
2022-08-30T09:37:26.782Z,10.43
2022-08-30T09:41:40.082Z,7.22
2022-08-30T09:45:44.230Z,10.23
2022-08-30T09:49:45.852Z,8.60
2022-08-30T09:58:43.593Z,11.18
2022-08-30T10:03:36.332Z,6.88
2022-08-30T10:08:17.713Z,9.10
2022-08-30T10:16:48.578Z,9.10
2022-08-30T10:21:22.362Z,8.27
2022-08-30T10:25:44.064Z,6.38
2022-08-30T10:29:59.400Z,10.45
2022-08-30T10:34:06.905Z,6.93
2022-08-30T10:38:22.527Z,8.83
2022-08-30T10:42:30.919Z,9.95
2022-08-30T10:46:58.326Z,7.68
2022-08-30T10:51:04.706Z,6.68
2022-08-30T10:55:10.344Z,6.43
2022-08-30T10:59:12.171Z,8.55
2022-08-30T11:03:54.409Z,6.07
2022-08-30T11:08:22.002Z,6.25
2022-08-30T11:12:50.418Z,7.45
2022-08-30T11:16:55.353Z,7.63
2022-08-30T11:21:54.614Z,5.82
2022-08-30T11:26:07.895Z,4.25
2022-08-30T11:30:26.989Z,5.95
2022-08-30T11:34:54.410Z,8.57
2022-08-30T11:42:57.288Z,10.25
2022-08-30T11:47:00.366Z,6.88
2022-08-30T11:51:11.048Z,8.05
2022-08-30T11:55:36.867Z,5.63
2022-08-30T12:00:05.179Z,7.97
2022-08-30T12:04:26.571Z,7.97
2022-08-30T12:08:28.417Z,6.18
2022-08-30T12:12:29.935Z,6.10
2022-08-30T12:17:03.955Z,8.85
2022-08-30T12:21:28.142Z,9.68
2022-08-30T12:25:35.095Z,7.20
2022-08-30T12:29:36.679Z,6.53
2022-08-30T12:33:54.062Z,7.95
2022-08-30T12:38:11.995Z,8.57
2022-08-30T12:42:26.986Z,8.68
2022-08-30T12:46:30.200Z,6.97
2022-08-30T12:50:36.491Z,6.28
2022-08-30T12:54:40.091Z,7.53
2022-08-30T12:58:45.810Z,7.38
2022-08-30T13:02:53.223Z,5.70
2022-08-30T13:06:58.520Z,10.25
2022-08-30T13:11:09.614Z,7.70
2022-08-30T13:15:20.150Z,6.70
2022-08-30T13:19:36.710Z,5.05
2022-08-30T13:23:38.169Z,6.93
2022-08-30T13:27:40.011Z,5.97
2022-08-30T13:31:41.874Z,9.10
2022-08-30T13:35:45.225Z,6.65
2022-08-30T13:39:46.640Z,7.63
2022-08-30T13:48:11.369Z,8.68
2022-08-30T13:52:22.167Z,7.70
2022-08-30T13:56:32.206Z,5.75
2022-08-30T14:00:37.834Z,8.68
2022-08-30T14:04:39.581Z,6.88
2022-08-30T14:08:45.161Z,9.30
2022-08-30T14:13:00.569Z,6.60
2022-08-30T14:17:09.262Z,9.40
2022-08-30T14:21:10.939Z,6.20
2022-08-30T14:25:12.506Z,5.72
2022-08-30T14:29:18.103Z,5.88
2022-08-30T14:33:19.778Z,9.18
2022-08-30T14:37:21.545Z,10.20
2022-08-30T14:41:23.142Z,5.47
2022-08-30T14:45:24.700Z,7.15
2022-08-30T14:49:26.956Z,8.20
2022-08-30T14:53:28.905Z,9.38
2022-08-30T14:57:30.325Z,7.45
2022-08-30T15:01:32.186Z,7.88
2022-08-30T15:05:38.676Z,5.68
2022-08-30T15:09:40.101Z,8.90
2022-08-30T15:13:44.358Z,8.63
2022-08-30T15:17:47.551Z,8.13
2022-08-30T15:21:51.149Z,7.03
2022-08-30T15:25:52.645Z,6.25
2022-08-30T15:29:54.297Z,7.75
2022-08-30T15:33:57.772Z,6.45
2022-08-30T15:38:04.645Z,7.65
2022-08-30T15:42:06.231Z,6.00
2022-08-30T15:46:30.170Z,16.02
2022-08-30T15:50:31.974Z,5.78
2022-08-30T15:54:33.500Z,7.95
2022-08-30T15:58:37.547Z,5.28
2022-08-30T16:02:39.120Z,6.55
2022-08-30T16:06:41.772Z,7.38
2022-08-30T16:10:43.370Z,7.43
2022-08-30T16:14:44.991Z,8.10
2022-08-30T16:18:53.934Z,7.38
2022-08-30T16:22:56.277Z,6.82
2022-08-30T16:26:58.040Z,6.63
2022-08-30T16:31:02.951Z,5.28
2022-08-30T16:35:07.557Z,8.40
2022-08-30T16:39:09.300Z,9.98
2022-08-30T16:43:11.156Z,7.10
2022-08-30T16:47:13.537Z,5.60
2022-08-30T16:51:18.502Z,8.23
2022-08-30T16:55:20.333Z,5.50
2022-08-30T16:59:23.301Z,7.05
2022-08-30T17:03:25.389Z,6.93
2022-08-30T17:07:26.847Z,9.25
2022-08-30T17:11:31.025Z,6.78
2022-08-30T17:15:32.887Z,7.05
2022-08-30T17:19:39.852Z,7.43
2022-08-30T17:23:43.653Z,6.30
2022-08-30T17:27:46.354Z,7.00
2022-08-30T17:31:51.368Z,5.57
2022-08-30T17:35:54.239Z,7.50
2022-08-30T17:39:59.314Z,6.57
2022-08-30T17:44:00.765Z,7.95
2022-08-30T17:48:02.468Z,9.15
2022-08-30T17:52:04.491Z,8.60
2022-08-30T17:56:06.551Z,9.77
2022-08-30T18:00:15.821Z,8.40
2022-08-30T18:04:19.583Z,7.90
2022-08-30T18:08:21.386Z,8.00
2022-08-30T18:12:22.942Z,7.53
2022-08-30T18:16:26.209Z,8.55
2022-08-30T18:20:28.303Z,7.88
2022-08-30T18:24:32.818Z,7.32
2022-08-30T18:28:34.353Z,8.00
2022-08-30T18:32:38.020Z,6.75
2022-08-30T18:36:40.574Z,6.65
2022-08-30T18:40:43.718Z,15.23
2022-08-30T18:44:45.264Z,10.15
2022-08-30T18:48:49.080Z,9.70
2022-08-30T18:52:52.611Z,7.60
2022-08-30T18:56:57.537Z,6.53
2022-08-30T19:00:58.953Z,6.57
2022-08-30T19:05:00.521Z,7.15
2022-08-30T19:09:02.320Z,5.88
2022-08-30T19:13:10.439Z,9.70
2022-08-30T19:17:12.313Z,6.18
2022-08-30T19:21:13.908Z,8.90
2022-08-30T19:25:17.927Z,8.07
2022-08-30T19:29:20.287Z,6.50
2022-08-30T19:33:21.711Z,9.68
2022-08-30T19:37:23.201Z,7.20
2022-08-30T19:41:24.809Z,7.55
2022-08-30T19:45:26.736Z,6.95
2022-08-30T19:49:28.157Z,7.45
2022-08-30T19:53:29.829Z,7.53
2022-08-30T19:57:31.510Z,9.20
2022-08-30T20:01:34.003Z,5.82
2022-08-30T20:05:35.772Z,7.88
2022-08-30T20:09:37.624Z,8.00
2022-08-30T20:13:39.118Z,7.03
2022-08-30T20:18:02.493Z,8.43
2022-08-30T20:22:08.025Z,6.03
2022-08-30T20:26:11.166Z,11.73
2022-08-30T20:30:14.541Z,6.68
2022-08-30T20:34:16.136Z,7.32
2022-08-30T20:38:22.106Z,8.35
2022-08-30T20:42:25.606Z,6.38
2022-08-30T20:46:32.012Z,7.32
2022-08-30T20:50:35.377Z,8.88
2022-08-30T20:54:37.269Z,7.80
2022-08-30T20:58:38.719Z,4.90
2022-08-30T21:02:46.454Z,7.95
2022-08-30T21:06:48.607Z,7.10
2022-08-30T21:10:53.492Z,6.25
2022-08-30T21:14:55.150Z,6.55
2022-08-30T21:18:57.079Z,10.15
2022-08-30T21:22:58.699Z,6.57
2022-08-30T21:27:00.499Z,7.75
2022-08-30T21:31:07.007Z,5.80
2022-08-30T21:35:27.786Z,6.07
2022-08-30T21:39:29.685Z,8.02
2022-08-30T21:43:31.087Z,6.68
2022-08-30T21:47:32.926Z,7.30
2022-08-30T21:51:37.560Z,5.78
2022-08-30T21:55:39.040Z,5.97
2022-08-30T21:59:41.747Z,7.18
2022-08-30T22:03:44.398Z,6.13
2022-08-30T22:07:45.994Z,4.47
2022-08-30T22:11:48.004Z,6.35
2022-08-30T22:15:51.537Z,6.35
2022-08-30T22:19:54.025Z,6.25
2022-08-30T22:23:56.401Z,5.60
2022-08-30T22:27:58.001Z,9.65
2022-08-30T22:32:00.125Z,6.18
2022-08-30T22:36:08.753Z,4.13
2022-08-30T22:40:10.461Z,6.80
2022-08-30T22:44:12.101Z,5.93
2022-08-30T22:48:13.613Z,5.38
2022-08-30T22:52:15.073Z,5.25
2022-08-30T22:56:20.004Z,9.38
2022-08-30T23:00:21.713Z,6.72
2022-08-30T23:04:23.121Z,5.70
2022-08-30T23:08:27.402Z,5.13
2022-08-30T23:12:29.063Z,5.55
2022-08-30T23:16:30.990Z,5.63
2022-08-30T23:20:33.053Z,4.65
2022-08-30T23:24:53.092Z,9.73
2022-08-30T23:29:14.456Z,8.23
2022-08-30T23:33:34.943Z,5.28
2022-08-30T23:37:55.432Z,7.10
2022-08-30T23:42:15.368Z,5.13
2022-08-30T23:46:35.569Z,5.50
2022-08-30T23:50:55.677Z,8.43
2022-08-30T23:55:15.875Z,6.75
2022-08-30T23:59:36.069Z,4.93
